Overblog Suivre ce blog
Editer l'article Administration Créer mon blog
15 janvier 2012 7 15 /01 /janvier /2012 09:16

 

helder-rodrigues.jpg

 

La bataille est titanesque entre les équipiers KTM  Déspres et Coma .Dépossédé de son leadership par Coma avant-hier suite à un enlisement trop prolongé, Cyril Déspres à repris son bien hier lorsque Coma c’est légèrement égarer ! La dernière étape va être décisive !

 

Classement général Dakar Moto aprés la treizième étape

Rang Numéro Pilote/Equipage Equipe Marque - Modèle Temps Retard
1 002 DESPRES Cyril TEAM RED BULL KTM KTM - 450cc Rally 43:01:54
2 001 COMA Marc KTM MRW RALLY DAKAR EAM KTM - 450 cc 43:57:57 00:56:03
3 003 RODRIGUES Helder TEAM YAMAHA RACING YAMAHA - WRF 450 44:13:21 01:11:27
4 010 VILADOMS Jordi BORDONE-FERRARI KTM - Rally Replica 44:43:06 01:41:12
5 032 SVITKO Stefan HANT LOGOMOTION SLOVAKIA KTM - 450 RR 44:51:30 01:49:36
6 006 ULLEVALSETER Pal Anders TEAM ULLEVALSETER KTM - 450 R 45:17:41 02:15:47
7 020 FARRES GUELL Gerard BORDONE-FERRARI KTM - 450 RALLY REPLICA 45:18:06 02:16:12
8 034 BOTTURI ALESSANDRO BORDONE-FERRARI KTM - 450 RALLY REPLICA 46:02:38 03:00:44
9 016 PAIN Olivier TEAM YAMAHA RACING YAMAHA - 450 YZF Rally 46:20:40 03:18:46
10 028 ZANOL FELIPE KTM BRASIL KTM - 450 Replica 46:26:31 03:24:37
11 023 BARREDA BORT Joan HUSQVARNA RALLYE TEAM BY SPEEDBRAIN HUSQVARNA - Rally 450 RR 46:39:26 03:37:32
12 008 FARIA Ruben TEAM RED BULL KTM KTM - 450 CC RALLY 46:54:04 03:52:10
13 021 AUBERT JOHNNY KTM RALLY FACTORY TEAM KTM - 450 RALLY 47:38:28 04:36:34
14 017 CZACHOR Jacek ORLEN TEAM KTM - 450 Replica 47:39:46 04:37:52
15 015 VERHOEVEN Frans SHERCO RALLY RAID - CROCOAVENTURES SHERCO - SR 450 48:06:27 05:04:33
16 018 KNUIMAN Henk WIM MOTORS DAKAR KTM - 450 REPLICA 48:17:03 05:15:09
17 039 GYENES Emanuel VECTRA RACING KTM - 450 RR 48:28:47 05:26:53
18 035 CECI Paolo BORDONE-FERRARI KTM - 450 RR 48:44:21 05:42:27
19 026 RODRIGUES FILHO Jose helio HUSQVARNA RALLYE TEAM BY SPEEDBRAIN HUQSVARNA - RALLY 450 RR 49:14:53 06:12:59
20 064 SCHRÖDER DANIEL MEMO TOURS - ALFIE COX TEAM KTM - 450cc 49:16:46 06:14:52
21 033 BETHYS Thierry
YAMAHA - 450 YZF Rally 50:06:23 07:04:29
22 144 CURTIS Darryl MEMO TOURS - ALFIE COX TEAM KTM - 450 Replica 50:20:54 07:19:00
23 012 PELLICER Jose Manuel HUSQVARNA RALLYE TEAM BY SPEEDBRAIN HUSQVARNA - Rally 450 RR 50:38:33 07:36:39
24 089 NASCIMENTO DENISIO PETROBRAS LUBRAX HONDA - CRF 450 50:50:38 07:48:44
25 040 SERRADORI Mathieu
KTM - 450 Rally 50:56:07 07:54:13
26 007 GONCALVES Paulo HUSQVARNA RALLYE TEAM BY SPEEDBRAIN Husqvarna - Rally 450 RR 51:08:37 08:06:43
27 048 LIEFHEBBER Hans-jos
KTM - 450 RR 51:21:43 08:19:49
28 110 BIRCH Christopher MEMO TOURS - ALFIE COX TEAM KTM - 450 Replica 51:25:48 08:23:54
29 041 PROHENS Felipe TAMARUGAL HONDA RACING XC RALLY TEAM HONDA (Transformada) - CRF450X RALLY 52:18:27 09:16:33
30 049 DABROWSKI Marek ORLEN TEAM KTM - 450 RR 52:19:13 09:17:19
31 082 GUINDANI Vincent HFP YAMAHA - YZR 450 52:25:47 09:23:53
32 042 PROHENS Jaime TAMARUGAL HONDA RACING XC RALLY TEAM HONDA - CRF 450X RALLY 52:48:02 09:46:08
33 050 SALVATIERRA Juan Carlos GHR HONDA HONDA - CRF450X 52:48:47 09:46:53
34 053 RODRIGUEZ Claudio TAMARUGAL HONDA RACING XC RALLY TEAM HONDA - CRF 450 X 53:12:48 10:10:54
35 060 WATT Stanley FRONT ROW GB / CRECENT KTM KTM - 450 RR 54:05:56 11:04:02
36 066 LORMAND Etienne ROUSSILL'HOTEL - HFP YAMAHA - 450 WRF 54:08:28 11:06:34
37 183 RODRIGUEZ Pablo HONDA RACING ARGENTINA HONDA - CRF450X 54:49:59 11:48:05
38 029 BERGLUND Thomas HUSABERG RALLY TEAM SCANDINAVIA HUSABERG - FE 450 55:12:59 12:11:05
39 057 WILLEMSEN Daniel TEAM HONDA EUROPE HONDA - CRF 450 X 55:14:12 12:12:18
40 045 SANZ PLA-GILIBERT Eulalia GAS GAS GAS - GAS - EC 450 55:25:03 12:23:09
41 145 NUTTALL Dean MEMO TOURS - ALFIE COX TEAM KTM - 450 Replica 55:43:45 12:41:51
42 014 CASTEU David TEAM YAMAHA RACING YAMAHA - 450 WRF Rally 55:45:00 12:43:06
43 046 BIANCHI PRATA Pedro TEAM BIANCHI PRATA / VODAFONE HUSQUARNA - TE449 RALLY 55:57:28 12:55:34
44 062 SCHWARZ David HUSABERG RALLYE RACING AUSTRALIA HUSABERG - FE450 56:03:15 13:01:21
45 071 BUTUZA Marcel BOANO HONDA - CRE F 450 X 56:19:37 13:17:43
46 154 GAJDOSECH ROBERTO ANTONIO ATUEL MOTOS YAMAHA - WR 450 56:40:57 13:39:03
47 077 PICCO Franco FRANCO PICCO RACING YAMAHA - WRF 450 56:42:36 13:40:42
48 148 GOMEZ Mauricio PACO GOMEZ RALLY TEAM YAMAHA - WR 450 57:02:44 14:00:50
49 185 SANCHEZ MARCELO TEAM RPM KAWASAKI KAWASAKI - KLX 450 R 57:20:30 14:18:36
50 181 RIOS FELIPE KTM PERU RALLY TEAM KTM - Rally Replica 57:24:26 14:22:32
51 138 LECOQ SEBASTIEN TEAM PERFORMANCE ENDURO YAMAHA - 450 YZFE 58:02:43 15:00:49
52 059 CIOTTI Filippo FRANCO PICCO RACING RIEJU - MRT 450 58:07:53 15:05:59
53 086 MUNK Jes X-RAGE RACING KTM - 450 58:14:31 15:12:37
54 081 SUESSE NED ADVRIDER/ NEDURO KTM - 450XCW 58:18:05 15:16:11
55 159 CHITTICK Jamie GHR HONDA HONDA - CRF450X 58:21:37 15:19:43
56 092 HAMARD Stephane REUNION RALLYE RAID KTM - 450 RR 58:51:07 15:49:13
57 087 MEILLAT Christophe C.M PROMO KAWASAKI - KLX 450 R 59:05:32 16:03:38
58 061 MATTOS Dimas BRASIL MOTO TOUR KTM - 450 RR 59:23:47 16:21:53
59 022 DUCLOS Alain GIOFIL APRILIA APRILIA - RXV 4.5 Rally 60:09:45 17:07:51
60 056 MENARD Jean-Christophe HFP YAMAHA - 450 YZF 60:10:19 17:08:25
61 069 PAYEN Hugo
YAMAHA - 450 WRF 60:17:03 17:15:09
62 165 MULDER GEERT TEAM HONDA EUROPE HONDA - CFR 450 X 60:17:30 17:15:36
63 065 LAZARD Laurent MOTO TEAM BY ELF YAMAHA - WR 450 60:48:51 17:46:57
64 168 GUIRAL DEMIAN AVANT MOTOS HONDA GENUINE OIL HONDA - CRF 450X 61:04:33 18:02:39
65 058 PUERTAS HERRERA Miguel HIMOINSA DAKAR TEAM YAMAHA - 450 WR 61:08:59 18:07:05
66 100 VESELY Jan CZECH DAKAR TEAM YAMAHA - WR 450F 62:04:59 19:03:05
67 122 PALANTE Eric WIM MOTORS RACING DIVISION KTM - 450 RR FREVA 62:08:19 19:06:25
68 164 DEMELCHORI DIEGO TEAM RPM KAWASAKI KAWASAKI - 2009 62:44:53 19:42:59
69 075 BUSIN Pablo MOTO TEAM BY ELF YAMAHA - 450 WR 62:59:40 19:57:46
70 076 PEDERZOLI Claudio ON-OFF RACING TEAM YAMAHA - WR 450 63:19:13 20:17:19
71 072 GOUNON SERGE EMS KTM - 450 RR 63:29:08 20:27:14
72 093 GOMEZ Jorge VEMOTOR CANARIAS Husqvarna - 450cc 64:47:51 21:45:57
73 080 PASCUAL Pablo oscar JINCHENG TEAM JINCHENG - JC450Y 64:55:01 21:53:07
74 074 KOFMAN Erik
KTM - 450 RR 65:52:07 22:50:13
75 068 BARROT David POWERBIKE YAMAHA IPONE YAMAHA - 450 IZF RALLY 66:12:49 23:10:55
76 149 CIPKA DUSAN SLOVAKIA TURBOTEAM ZATKO BMW - G450X 66:30:43 23:28:49
77 073 BONY BRUNO EMS KTM - 450 RR 67:03:47 24:01:53
78 091 TONETTI NICOLA TEAM BOANO HONDA - CRF 450 X 67:39:43 24:37:49
79 174 MARTÍNEZ Paco PACO MARTINEZ KAWASAKI - KX450 68:33:29 25:31:35
80 107 BODINGER Ronnie HUSABERG FACTORY TEAM HUSABERG - FE 450 68:39:07 25:37:13
81 085 PENATE MUNOZ Pedro Manuel KH7 VALSEBIKE KTM - 450 70:35:40 27:33:46
82 136 IGARIS GINTAUTAS
YAMAHA - WR450F 70:41:34 27:39:40
83 102 ALAN Eduardo ELF ARGENTINA Yamaha - WR 450 71:46:38 28:44:44
84 176 RAAF Greg MEMO TOURS - ALFIE COX TEAM KTM - 450 Replica 72:58:25 29:56:31
85 099 CHERPIN Pierre
KTM - 450 RR 73:55:47 30:53:53
86 120 ILLANES Rodrigo TARAPACA RALLY TEAM Husqvarna - TE 449 75:28:00 32:26:06
87 151 BEALUSTEGUI Juan Manuel AL LIMITE DAKAR 2012 YAMAHA - WR 450 F 76:07:44 33:05:50
88 131 THEURIOT Herve REVIVAL AVENTURES YAMAHA - 450 WRF 77:44:06 34:42:12
89 158 VELLUTINO Carlo PERUANOS AL DAKAR KTM - 450 EXC 2011 78:30:07 35:28:13
90 129 DEPOORTER Philippe WIM MOTORS DAKAR KTM - 450 78:32:30 35:30:36
91 140 REINIKE MARCO MARCO REINIKE KTM - 450 RALLY REPLICA 83:52:55 40:51:01
92 111 ESPINASSE SYLVAIN SHERCO RALLY RAID - CROCOAVENTURES SHERCO - SR 450 84:27:43 41:25:49
93 152 TER BEEK RONALD GHR HONDA HONDA - CFR 450 X 84:32:46 41:30:52
94 125 ASTORI Gianernesto ABC RALLY ACTION TEAM KTM - 450 RR 86:58:38 43:56:44
95 094 WEI Guanghui JINCHENG TEAM JINCHENG - JC 450Y 90:00:08 46:58:14
96 128 ANO Julio TEAM NORMAND RAID YAMAHA - WRF 450 90:58:26 47:56:32
97 187 YOUNGER TOBIAS DESERT ROSE RACING KTM - 450EXC 123:24:27 80:22:33
98 160 HAMEL ERIC
YAMAHA - 450 WRF 148:08:55 105:07:01

 

Partager cet article

Repost 0
Published by jack sellertaux - dans dakar 2015
commenter cet article

commentaires